createdAt,value
2022-12-11T00:02:05.908Z,85.10
2022-12-11T00:04:32.530Z,85.11
2022-12-11T00:06:59.082Z,85.40
2022-12-11T00:09:25.736Z,85.48
2022-12-11T00:11:52.186Z,85.11
2022-12-11T00:14:18.571Z,85.28
2022-12-11T00:16:45.170Z,84.73
2022-12-11T00:19:11.600Z,84.59
2022-12-11T00:21:38.097Z,84.79
2022-12-11T00:24:04.956Z,84.66
2022-12-11T00:26:31.811Z,85.02
2022-12-11T00:28:58.221Z,84.90
2022-12-11T00:31:24.986Z,84.87
2022-12-11T00:33:51.468Z,85.13
2022-12-11T00:36:21.967Z,85.57
2022-12-11T00:38:48.901Z,85.54
2022-12-11T00:41:15.640Z,85.44
2022-12-11T00:43:42.100Z,85.75
2022-12-11T00:46:08.594Z,85.94
2022-12-11T00:48:35.083Z,85.69
2022-12-11T00:51:01.513Z,86.21
2022-12-11T00:53:27.948Z,85.52
2022-12-11T00:55:54.398Z,85.46
2022-12-11T00:58:22.218Z,86.03
2022-12-11T01:00:50.564Z,86.20
2022-12-11T01:03:17.201Z,85.81
2022-12-11T01:05:51.024Z,86.32
2022-12-11T01:08:17.487Z,85.98
2022-12-11T01:10:45.966Z,86.50
2022-12-11T01:13:12.820Z,86.61
2022-12-11T01:15:41.638Z,86.57
2022-12-11T01:18:08.624Z,86.30
2022-12-11T01:20:35.258Z,86.31
2022-12-11T01:23:06.801Z,86.71
2022-12-11T01:25:33.592Z,87.18
2022-12-11T01:28:00.158Z,87.58
2022-12-11T01:30:26.774Z,86.96
2022-12-11T01:32:53.290Z,87.48
2022-12-11T01:35:19.743Z,87.66
2022-12-11T01:37:47.020Z,87.54
2022-12-11T01:40:14.097Z,86.84
2022-12-11T01:42:40.480Z,86.97
2022-12-11T01:45:12.960Z,87.10
2022-12-11T01:47:39.511Z,87.39
2022-12-11T01:50:06.207Z,87.14
2022-12-11T01:52:32.845Z,86.34
2022-12-11T01:54:59.262Z,86.46
2022-12-11T01:57:25.660Z,86.05
2022-12-11T01:59:52.093Z,86.28
2022-12-11T02:02:19.679Z,86.63
2022-12-11T02:04:46.145Z,86.74
2022-12-11T02:07:12.668Z,86.69
2022-12-11T02:09:39.525Z,86.40
2022-12-11T02:12:09.160Z,86.98
2022-12-11T02:14:44.752Z,86.90
2022-12-11T02:17:30.183Z,87.00
2022-12-11T02:20:03.877Z,87.16
2022-12-11T02:22:45.491Z,86.85
2022-12-11T02:25:22.747Z,87.24
2022-12-11T02:27:56.809Z,87.18
2022-12-11T02:30:23.719Z,87.50
2022-12-11T02:32:56.744Z,87.49
2022-12-11T02:35:33.541Z,87.25
2022-12-11T02:38:01.952Z,87.75
2022-12-11T02:40:29.313Z,87.59
2022-12-11T02:42:56.281Z,88.27
2022-12-11T02:45:22.971Z,88.08
2022-12-11T02:47:49.410Z,88.10
2022-12-11T02:50:16.956Z,87.81
2022-12-11T02:52:43.450Z,87.81
2022-12-11T02:55:10.379Z,87.87
2022-12-11T02:57:45.023Z,87.99
2022-12-11T03:00:11.750Z,87.99
2022-12-11T03:02:38.914Z,88.20
2022-12-11T03:05:05.595Z,88.70
2022-12-11T03:07:33.039Z,88.39
2022-12-11T03:09:59.570Z,88.96
2022-12-11T03:12:29.814Z,88.92
2022-12-11T03:14:56.548Z,88.41
2022-12-11T03:17:23.594Z,88.41
2022-12-11T03:19:49.967Z,88.29
2022-12-11T03:22:24.322Z,87.99
2022-12-11T03:24:51.600Z,88.03
2022-12-11T03:27:24.215Z,87.93
2022-12-11T03:29:55.409Z,88.02
2022-12-11T03:32:23.232Z,88.17
2022-12-11T03:35:02.042Z,88.62
2022-12-11T03:37:28.946Z,88.63
2022-12-11T03:39:56.859Z,88.91
2022-12-11T03:42:23.316Z,88.45
2022-12-11T03:44:49.846Z,89.16
2022-12-11T03:47:17.757Z,88.72
2022-12-11T03:49:44.676Z,89.19
2022-12-11T03:52:11.420Z,89.59
2022-12-11T03:54:58.311Z,88.97
2022-12-11T03:57:25.998Z,89.27
2022-12-11T03:59:52.412Z,88.99
2022-12-11T04:02:18.843Z,88.68
2022-12-11T04:04:45.315Z,88.36
2022-12-11T04:07:11.703Z,88.12
2022-12-11T04:09:38.141Z,87.85
2022-12-11T04:12:04.589Z,87.30
2022-12-11T04:14:49.796Z,87.47
2022-12-11T04:17:36.184Z,87.26
2022-12-11T04:20:21.353Z,87.47
2022-12-11T04:23:06.470Z,87.09
2022-12-11T04:25:52.139Z,86.97
2022-12-11T04:28:18.578Z,86.91
2022-12-11T04:30:48.796Z,86.78
2022-12-11T04:33:15.419Z,86.24
2022-12-11T04:35:41.824Z,86.29
2022-12-11T04:38:08.241Z,86.01
2022-12-11T04:40:34.868Z,85.73
2022-12-11T04:43:01.351Z,85.35
2022-12-11T04:45:27.802Z,85.45
2022-12-11T04:47:54.505Z,85.34
2022-12-11T04:50:20.936Z,84.70
2022-12-11T04:52:47.576Z,84.91
2022-12-11T04:55:14.396Z,85.19
2022-12-11T04:57:41.078Z,85.04
2022-12-11T05:00:08.297Z,85.85
2022-12-11T05:02:36.064Z,84.94
2022-12-11T05:05:03.546Z,85.51
2022-12-11T05:07:30.016Z,85.38
2022-12-11T05:09:56.431Z,85.40
2022-12-11T05:12:22.832Z,85.83
2022-12-11T05:14:51.806Z,85.65
2022-12-11T05:17:18.278Z,85.67
2022-12-11T05:19:45.168Z,84.85
2022-12-11T05:22:11.569Z,85.37
2022-12-11T05:24:38.144Z,84.89
2022-12-11T05:27:04.541Z,84.65
2022-12-11T05:29:30.958Z,84.42
2022-12-11T05:31:57.615Z,84.78
2022-12-11T05:34:24.092Z,84.38
2022-12-11T05:36:50.809Z,83.84
2022-12-11T05:39:17.280Z,84.35
2022-12-11T05:41:43.685Z,83.67
2022-12-11T05:44:13.379Z,83.89
2022-12-11T05:46:40.061Z,84.25
2022-12-11T05:49:06.533Z,84.44
2022-12-11T05:51:36.061Z,84.28
2022-12-11T05:54:02.708Z,83.63
2022-12-11T05:56:30.169Z,83.21
2022-12-11T05:58:56.679Z,83.33
2022-12-11T06:01:23.131Z,83.23
2022-12-11T06:03:49.560Z,83.34
2022-12-11T06:06:16.177Z,82.76
2022-12-11T06:08:42.694Z,83.44
2022-12-11T06:11:09.217Z,83.47
2022-12-11T06:13:35.656Z,83.16
2022-12-11T06:16:04.507Z,83.21
2022-12-11T06:18:31.152Z,83.13
2022-12-11T06:20:57.810Z,83.36
2022-12-11T06:23:24.272Z,83.40
2022-12-11T06:25:50.675Z,83.61
2022-12-11T06:28:17.584Z,83.04
2022-12-11T06:30:45.001Z,83.59
2022-12-11T06:33:11.451Z,83.51
2022-12-11T06:35:41.968Z,83.67
2022-12-11T06:38:09.478Z,84.07
2022-12-11T06:40:35.892Z,83.93
2022-12-11T06:43:02.302Z,85.00
2022-12-11T06:45:28.828Z,85.10
2022-12-11T06:47:55.720Z,85.42
2022-12-11T06:50:22.178Z,85.69
2022-12-11T06:52:48.659Z,84.96
2022-12-11T06:55:15.303Z,85.04
2022-12-11T06:57:41.869Z,84.27
2022-12-11T07:00:08.632Z,84.03
2022-12-11T07:02:35.132Z,84.17
2022-12-11T07:05:01.771Z,84.03
2022-12-11T07:07:28.345Z,84.04
2022-12-11T07:09:54.937Z,84.08
2022-12-11T07:12:21.500Z,84.75
2022-12-11T07:14:47.977Z,84.95
2022-12-11T07:17:14.374Z,84.74
2022-12-11T07:19:41.047Z,84.31
2022-12-11T07:22:07.573Z,84.22
2022-12-11T07:24:33.982Z,84.11
2022-12-11T07:27:00.583Z,84.10
2022-12-11T07:29:27.204Z,83.99
2022-12-11T07:31:53.945Z,84.08
2022-12-11T07:34:20.910Z,83.56
2022-12-11T07:36:47.385Z,83.36
2022-12-11T07:39:13.831Z,83.50
2022-12-11T07:41:40.249Z,83.28
2022-12-11T07:44:06.669Z,82.54
2022-12-11T07:46:33.324Z,82.74
2022-12-11T07:49:00.998Z,82.87
2022-12-11T07:51:28.459Z,83.57
2022-12-11T07:53:58.738Z,83.09
2022-12-11T07:56:25.487Z,82.84
2022-12-11T07:59:03.602Z,82.64
2022-12-11T08:01:36.482Z,82.85
2022-12-11T08:04:03.864Z,82.76
2022-12-11T08:06:31.182Z,82.65
2022-12-11T08:08:58.321Z,82.30
2022-12-11T08:11:25.092Z,81.71
2022-12-11T08:13:51.509Z,82.60
2022-12-11T08:16:18.077Z,83.00
2022-12-11T08:18:44.980Z,82.15
2022-12-11T08:21:14.357Z,81.86
2022-12-11T08:23:40.789Z,81.68
2022-12-11T08:26:07.884Z,81.46
2022-12-11T08:28:34.481Z,82.22
2022-12-11T08:31:00.971Z,82.04
2022-12-11T08:33:27.482Z,82.04
2022-12-11T08:35:54.131Z,82.52
2022-12-11T08:38:25.245Z,82.12
2022-12-11T08:40:52.077Z,82.18
2022-12-11T08:43:18.528Z,81.99
2022-12-11T08:45:46.003Z,82.72
2022-12-11T08:48:12.478Z,83.02
2022-12-11T08:50:38.906Z,83.15
2022-12-11T08:53:05.284Z,83.69
2022-12-11T08:55:32.365Z,83.96
2022-12-11T08:57:58.802Z,83.52
2022-12-11T09:00:25.196Z,83.63
2022-12-11T09:02:51.755Z,83.82
2022-12-11T09:05:18.203Z,83.56
2022-12-11T09:07:44.765Z,83.23
2022-12-11T09:10:11.267Z,82.84
2022-12-11T09:12:38.174Z,82.78
2022-12-11T09:15:04.803Z,82.29
2022-12-11T09:17:31.277Z,82.79
2022-12-11T09:19:58.802Z,82.85
2022-12-11T09:22:25.279Z,82.77
2022-12-11T09:24:51.802Z,82.65
2022-12-11T09:27:19.867Z,82.68
2022-12-11T09:29:46.263Z,82.70
2022-12-11T09:32:14.658Z,83.23
2022-12-11T09:34:41.139Z,82.52
2022-12-11T09:37:07.595Z,82.11
2022-12-11T09:39:34.078Z,81.90
2022-12-11T09:42:03.678Z,81.68
2022-12-11T09:44:49.749Z,81.80
2022-12-11T09:47:17.249Z,81.84
2022-12-11T09:49:44.260Z,81.42
2022-12-11T09:52:12.842Z,82.15
2022-12-11T09:54:44.343Z,82.37
2022-12-11T09:57:14.721Z,82.12
2022-12-11T10:00:04.205Z,81.36
2022-12-11T10:02:34.567Z,80.73
2022-12-11T10:05:16.377Z,81.39
2022-12-11T10:07:48.307Z,81.22
2022-12-11T10:10:14.774Z,81.20
2022-12-11T10:12:55.171Z,80.75
2022-12-11T10:15:43.094Z,80.50
2022-12-11T10:18:11.346Z,80.67
2022-12-11T10:20:40.274Z,81.19
2022-12-11T10:23:07.392Z,80.25
2022-12-11T10:25:59.789Z,80.40
2022-12-11T10:28:27.352Z,80.09
2022-12-11T10:30:53.753Z,80.78
2022-12-11T10:33:20.791Z,80.57
2022-12-11T10:35:50.278Z,80.77
2022-12-11T10:38:20.959Z,80.51
2022-12-11T10:40:49.456Z,80.63
2022-12-11T10:43:15.925Z,80.92
2022-12-11T10:45:50.535Z,80.22
2022-12-11T10:48:17.134Z,80.09
2022-12-11T10:50:43.799Z,79.47
2022-12-11T10:53:19.994Z,80.08
2022-12-11T10:55:46.433Z,79.45
2022-12-11T10:58:15.470Z,79.58
2022-12-11T11:00:41.969Z,78.82
2022-12-11T11:03:20.127Z,79.20
2022-12-11T11:05:49.495Z,78.64
2022-12-11T11:08:19.416Z,78.15
2022-12-11T11:10:58.880Z,78.34
2022-12-11T11:13:29.121Z,78.93
2022-12-11T11:16:00.104Z,79.64
2022-12-11T11:18:27.113Z,79.12
2022-12-11T11:20:53.689Z,78.78
2022-12-11T11:23:21.840Z,78.73
2022-12-11T11:25:49.221Z,78.05
2022-12-11T11:28:18.488Z,78.63
2022-12-11T11:30:53.937Z,77.37
2022-12-11T11:33:21.120Z,77.57
2022-12-11T11:35:54.540Z,77.66
2022-12-11T11:38:27.932Z,78.44
2022-12-11T11:41:07.611Z,77.87
2022-12-11T11:43:46.996Z,76.90
2022-12-11T11:46:26.785Z,77.21
2022-12-11T11:49:11.883Z,76.91
2022-12-11T11:51:58.039Z,76.80
2022-12-11T11:54:24.433Z,77.11
2022-12-11T11:56:51.947Z,77.22
2022-12-11T11:59:39.838Z,77.56
2022-12-11T12:02:16.409Z,78.12
2022-12-11T12:04:47.145Z,77.27
2022-12-11T12:07:14.245Z,77.48
2022-12-11T12:10:00.036Z,78.07
2022-12-11T12:12:31.039Z,78.00
2022-12-11T12:15:12.486Z,77.61
2022-12-11T12:17:55.377Z,77.02
2022-12-11T12:20:25.398Z,76.96
2022-12-11T12:23:00.897Z,77.24
2022-12-11T12:25:27.288Z,77.09
2022-12-11T12:28:12.589Z,77.41
2022-12-11T12:30:45.639Z,76.61
2022-12-11T12:33:22.098Z,77.11
2022-12-11T12:35:55.421Z,76.93
2022-12-11T12:38:27.803Z,77.04
2022-12-11T12:40:57.251Z,76.27
2022-12-11T12:43:31.530Z,76.40
2022-12-11T12:46:00.270Z,75.84
2022-12-11T12:48:27.071Z,75.98
2022-12-11T12:50:53.480Z,75.93
2022-12-11T12:53:20.761Z,75.89
2022-12-11T12:55:47.261Z,76.27
2022-12-11T12:58:27.306Z,76.23
2022-12-11T13:01:13.416Z,75.20
2022-12-11T13:03:58.449Z,76.08
2022-12-11T13:06:43.078Z,74.86
2022-12-11T13:09:10.917Z,75.75
2022-12-11T13:11:37.338Z,75.83
2022-12-11T13:14:15.958Z,75.83
2022-12-11T13:16:43.185Z,75.85
2022-12-11T13:19:28.015Z,76.08
2022-12-11T13:21:55.226Z,75.93
2022-12-11T13:24:21.689Z,75.91
2022-12-11T13:26:48.584Z,75.77
2022-12-11T13:29:50.505Z,76.39
2022-12-11T13:32:16.975Z,75.92
2022-12-11T13:34:44.627Z,75.56
2022-12-11T13:37:31.861Z,75.87
2022-12-11T13:39:58.261Z,75.86
2022-12-11T13:42:47.611Z,76.31
2022-12-11T13:45:24.133Z,75.96
2022-12-11T13:47:50.825Z,75.95
2022-12-11T13:50:28.455Z,75.86
2022-12-11T13:53:01.421Z,75.89
2022-12-11T13:55:30.076Z,76.06
2022-12-11T13:57:56.783Z,76.18
2022-12-11T14:00:24.100Z,76.43
2022-12-11T14:02:50.615Z,76.54
2022-12-11T14:05:17.068Z,76.66
2022-12-11T14:07:47.548Z,76.33
2022-12-11T14:10:18.370Z,76.50
2022-12-11T14:12:50.762Z,76.73
2022-12-11T14:15:17.166Z,78.12
2022-12-11T14:17:47.178Z,77.00
2022-12-11T14:20:18.883Z,76.86
2022-12-11T14:22:45.377Z,76.65
2022-12-11T14:25:22.138Z,77.38
2022-12-11T14:27:49.352Z,77.07
2022-12-11T14:30:22.208Z,77.33
2022-12-11T14:32:48.648Z,77.60
2022-12-11T14:35:21.554Z,77.47
2022-12-11T14:37:48.277Z,77.41
2022-12-11T14:40:16.347Z,77.37
2022-12-11T14:42:44.371Z,77.40
2022-12-11T14:45:20.309Z,77.44
2022-12-11T14:47:46.759Z,77.04
2022-12-11T14:50:19.157Z,77.14
2022-12-11T14:53:15.143Z,76.92
2022-12-11T14:55:41.582Z,77.37
2022-12-11T14:58:18.133Z,77.40
2022-12-11T15:00:44.542Z,77.55
2022-12-11T15:03:17.613Z,77.66
2022-12-11T15:05:54.079Z,77.81
2022-12-11T15:08:40.745Z,77.77
2022-12-11T15:11:08.405Z,77.73
2022-12-11T15:13:35.482Z,78.33
2022-12-11T15:16:01.951Z,78.32
2022-12-11T15:18:33.005Z,78.46
2022-12-11T15:21:07.361Z,78.54
2022-12-11T15:23:34.559Z,78.38
2022-12-11T15:26:01.115Z,78.80
2022-12-11T15:28:29.661Z,78.75
2022-12-11T15:30:57.172Z,78.73
2022-12-11T15:33:23.666Z,79.22
2022-12-11T15:35:54.073Z,79.03
2022-12-11T15:38:31.225Z,79.17
2022-12-11T15:40:57.794Z,78.81
2022-12-11T15:43:24.193Z,78.93
2022-12-11T15:45:50.725Z,78.99
2022-12-11T15:48:17.158Z,79.06
2022-12-11T15:50:43.572Z,79.22
2022-12-11T15:53:10.029Z,78.91
2022-12-11T15:55:36.428Z,78.55
2022-12-11T15:58:03.689Z,78.77
2022-12-11T16:00:30.666Z,79.00
2022-12-11T16:02:57.567Z,78.41
2022-12-11T16:05:24.328Z,78.29
2022-12-11T16:07:59.746Z,78.22
2022-12-11T16:10:26.886Z,77.96
2022-12-11T16:12:53.374Z,77.65
2022-12-11T16:15:23.509Z,77.52
2022-12-11T16:17:50.617Z,77.37
2022-12-11T16:20:17.064Z,77.87
2022-12-11T16:22:43.507Z,77.61
2022-12-11T16:25:10.328Z,77.54
2022-12-11T16:27:36.932Z,77.45
2022-12-11T16:30:03.688Z,77.37
2022-12-11T16:32:30.156Z,77.30
2022-12-11T16:34:58.061Z,77.47
2022-12-11T16:37:24.508Z,77.92
2022-12-11T16:39:50.949Z,77.92
2022-12-11T16:42:17.421Z,77.77
2022-12-11T16:44:44.314Z,78.13
2022-12-11T16:47:10.909Z,78.31
2022-12-11T16:49:37.333Z,78.07
2022-12-11T16:52:03.827Z,78.20
2022-12-11T16:54:30.306Z,78.31
2022-12-11T16:56:56.773Z,78.43
2022-12-11T16:59:23.238Z,78.79
2022-12-11T17:01:50.590Z,78.82
2022-12-11T17:04:17.152Z,78.42
2022-12-11T17:06:43.647Z,78.62
2022-12-11T17:09:10.072Z,78.53
2022-12-11T17:11:36.557Z,78.85
2022-12-11T17:14:03.014Z,78.54
2022-12-11T17:16:30.508Z,79.01
2022-12-11T17:18:57.441Z,78.77
2022-12-11T17:21:23.937Z,78.44
2022-12-11T17:23:50.761Z,78.81
2022-12-11T17:26:17.474Z,78.25
2022-12-11T17:28:44.046Z,78.60
2022-12-11T17:31:12.888Z,78.27
2022-12-11T17:33:39.655Z,78.11
2022-12-11T17:36:06.588Z,77.91
2022-12-11T17:38:33.044Z,77.78
2022-12-11T17:40:59.469Z,77.33
2022-12-11T17:43:25.987Z,77.33
2022-12-11T17:45:55.447Z,77.00
2022-12-11T17:48:25.009Z,77.19
2022-12-11T17:50:51.667Z,77.36
2022-12-11T17:53:18.302Z,77.55
2022-12-11T17:55:44.856Z,77.66
2022-12-11T17:58:15.430Z,77.95
2022-12-11T18:00:42.170Z,78.04
2022-12-11T18:03:08.566Z,78.31
2022-12-11T18:05:35.221Z,77.90
2022-12-11T18:08:01.752Z,78.20
2022-12-11T18:10:28.199Z,78.36
2022-12-11T18:12:54.760Z,78.32
2022-12-11T18:15:21.317Z,78.17
2022-12-11T18:17:48.537Z,78.55
2022-12-11T18:20:15.974Z,78.10
2022-12-11T18:22:42.684Z,78.49
2022-12-11T18:25:23.747Z,78.22
2022-12-11T18:27:50.722Z,78.57
2022-12-11T18:30:17.248Z,78.51
2022-12-11T18:32:43.906Z,78.45
2022-12-11T18:35:10.770Z,78.84
2022-12-11T18:37:37.670Z,78.26
2022-12-11T18:40:04.520Z,78.63
2022-12-11T18:42:33.430Z,78.48
2022-12-11T18:45:00.276Z,77.81
2022-12-11T18:47:26.752Z,77.28
2022-12-11T18:49:53.262Z,77.25
2022-12-11T18:52:19.783Z,77.55
2022-12-11T18:54:46.301Z,77.47
2022-12-11T18:57:12.762Z,77.31
2022-12-11T18:59:39.172Z,77.64
2022-12-11T19:02:05.717Z,77.47
2022-12-11T19:04:32.363Z,77.76
2022-12-11T19:06:59.907Z,77.73
2022-12-11T19:09:26.372Z,77.54
2022-12-11T19:11:53.616Z,76.85
2022-12-11T19:14:20.049Z,77.23
2022-12-11T19:16:46.699Z,76.57
2022-12-11T19:19:20.491Z,76.67
2022-12-11T19:21:47.165Z,76.11
2022-12-11T19:24:15.207Z,76.23
2022-12-11T19:26:42.239Z,76.60
2022-12-11T19:29:09.863Z,76.86
2022-12-11T19:31:36.458Z,77.05
2022-12-11T19:34:03.084Z,77.42
2022-12-11T19:36:29.680Z,77.42
2022-12-11T19:39:01.206Z,77.55
2022-12-11T19:41:28.569Z,77.81
2022-12-11T19:43:56.157Z,77.27
2022-12-11T19:46:22.872Z,77.48
2022-12-11T19:48:49.616Z,77.55
2022-12-11T19:51:20.356Z,77.35
2022-12-11T19:53:46.891Z,77.98
2022-12-11T19:56:13.476Z,77.67
2022-12-11T19:58:39.942Z,77.84
2022-12-11T20:01:07.452Z,77.92
2022-12-11T20:03:34.234Z,77.57
2022-12-11T20:06:01.470Z,77.79
2022-12-11T20:08:44.250Z,77.89
2022-12-11T20:11:17.303Z,78.17
2022-12-11T20:13:45.995Z,78.15
2022-12-11T20:16:13.065Z,77.83
2022-12-11T20:18:39.568Z,77.59
2022-12-11T20:21:07.084Z,77.53
2022-12-11T20:23:33.745Z,77.73
2022-12-11T20:26:00.265Z,77.53
2022-12-11T20:28:26.901Z,77.50
2022-12-11T20:30:53.400Z,77.58
2022-12-11T20:33:19.956Z,77.06
2022-12-11T20:35:46.452Z,77.30
2022-12-11T20:38:12.879Z,76.90
2022-12-11T20:40:39.375Z,77.08
2022-12-11T20:43:05.817Z,77.00
2022-12-11T20:45:32.325Z,77.12
2022-12-11T20:47:58.809Z,77.13
2022-12-11T20:50:25.227Z,77.51
2022-12-11T20:52:54.712Z,77.34
2022-12-11T20:55:21.241Z,77.26
2022-12-11T20:57:47.667Z,77.59
2022-12-11T21:00:14.769Z,77.74
2022-12-11T21:02:41.269Z,77.80
2022-12-11T21:05:08.016Z,77.53
2022-12-11T21:07:35.569Z,77.79
2022-12-11T21:10:02.025Z,77.92
2022-12-11T21:12:31.727Z,77.36
2022-12-11T21:14:58.386Z,77.20
2022-12-11T21:17:24.810Z,77.34
2022-12-11T21:19:51.327Z,76.97
2022-12-11T21:22:17.749Z,77.01
2022-12-11T21:24:44.263Z,77.47
2022-12-11T21:27:11.602Z,77.09
2022-12-11T21:29:38.196Z,77.16
2022-12-11T21:32:04.877Z,77.46
2022-12-11T21:34:31.451Z,77.11
2022-12-11T21:36:57.933Z,77.24
2022-12-11T21:39:24.717Z,77.57
2022-12-11T21:41:51.206Z,77.31
2022-12-11T21:47:04.422Z,77.91
2022-12-11T21:49:30.902Z,77.61
2022-12-11T21:51:57.372Z,77.64
2022-12-11T21:54:23.985Z,77.72
2022-12-11T21:56:50.383Z,77.63
2022-12-11T21:59:16.982Z,77.33
2022-12-11T22:01:46.026Z,77.58
2022-12-11T22:04:13.177Z,77.73
2022-12-11T22:06:42.197Z,77.86
2022-12-11T22:09:08.830Z,77.54
2022-12-11T22:11:35.480Z,77.60
2022-12-11T22:14:02.244Z,77.05
2022-12-11T22:16:29.462Z,77.47
2022-12-11T22:18:55.942Z,76.89
2022-12-11T22:21:22.451Z,77.29
2022-12-11T22:23:48.954Z,77.26
2022-12-11T22:26:16.581Z,77.20
2022-12-11T22:28:42.990Z,76.91
2022-12-11T22:31:12.849Z,76.68
2022-12-11T22:33:39.419Z,77.27
2022-12-11T22:36:06.605Z,77.13
2022-12-11T22:38:33.593Z,77.53
2022-12-11T22:41:00.077Z,77.91
2022-12-11T22:43:26.557Z,77.66
2022-12-11T22:45:53.273Z,77.40
2022-12-11T22:48:19.818Z,77.24
2022-12-11T22:50:46.223Z,77.70
2022-12-11T22:53:12.815Z,77.17
2022-12-11T22:55:39.947Z,77.18
2022-12-11T22:58:06.478Z,77.30
2022-12-11T23:00:32.900Z,77.23
2022-12-11T23:02:59.410Z,77.19
2022-12-11T23:05:26.049Z,77.29
2022-12-11T23:07:52.574Z,77.16
2022-12-11T23:10:19.089Z,77.14
2022-12-11T23:12:45.496Z,77.16
2022-12-11T23:15:12.299Z,77.56
2022-12-11T23:17:39.417Z,77.44
2022-12-11T23:20:06.207Z,77.76
2022-12-11T23:22:32.959Z,77.86
2022-12-11T23:24:59.411Z,77.38
2022-12-11T23:27:25.902Z,77.19
2022-12-11T23:29:52.353Z,76.98
2022-12-11T23:32:19.014Z,77.20
2022-12-11T23:34:45.430Z,77.33
2022-12-11T23:37:11.959Z,77.46
2022-12-11T23:39:38.478Z,77.40
2022-12-11T23:42:05.066Z,77.93
2022-12-11T23:44:31.531Z,78.08
2022-12-11T23:46:57.968Z,78.21
2022-12-11T23:49:24.416Z,77.97
2022-12-11T23:51:50.992Z,78.22
2022-12-11T23:54:17.460Z,78.29
2022-12-11T23:56:43.877Z,78.23
2022-12-11T23:59:13.431Z,77.40
